createdAt,value
2022-07-30T00:00:36.680Z,9.20
2022-07-30T00:03:04.969Z,8.73
2022-07-30T00:05:33.084Z,8.63
2022-07-30T00:08:01.235Z,8.63
2022-07-30T00:10:29.390Z,8.40
2022-07-30T00:12:58.257Z,8.65
2022-07-30T00:15:26.457Z,8.60
2022-07-30T00:17:56.050Z,8.40
2022-07-30T00:20:24.228Z,7.80
2022-07-30T00:22:56.202Z,8.73
2022-07-30T00:25:24.331Z,7.90
2022-07-30T00:27:52.441Z,8.25
2022-07-30T00:30:20.503Z,7.47
2022-07-30T00:32:48.631Z,6.90
2022-07-30T00:35:18.092Z,7.90
2022-07-30T00:37:46.415Z,7.82
2022-07-30T00:40:14.695Z,6.32
2022-07-30T00:42:43.468Z,6.25
2022-07-30T00:45:12.504Z,7.03
2022-07-30T00:47:40.781Z,5.88
2022-07-30T00:50:10.990Z,7.22
2022-07-30T00:52:40.797Z,6.18
2022-07-30T00:55:10.097Z,6.07
2022-07-30T00:57:39.294Z,6.55
2022-07-30T01:00:08.895Z,5.68
2022-07-30T01:02:37.167Z,7.10
2022-07-30T01:05:05.980Z,6.65
2022-07-30T01:07:34.504Z,5.88
2022-07-30T01:10:04.444Z,5.82
2022-07-30T01:12:32.537Z,6.60
2022-07-30T01:15:01.291Z,6.05
2022-07-30T01:17:29.388Z,5.10
2022-07-30T01:20:00.332Z,4.85
2022-07-30T01:22:34.660Z,4.70
2022-07-30T01:25:07.528Z,4.47
2022-07-30T01:27:40.184Z,5.95
2022-07-30T01:30:09.835Z,4.70
2022-07-30T01:32:40.057Z,4.82
2022-07-30T01:35:09.503Z,4.82
2022-07-30T01:37:37.741Z,4.90
2022-07-30T01:40:07.134Z,4.55
2022-07-30T01:42:37.092Z,4.72
2022-07-30T01:45:05.969Z,5.88
2022-07-30T01:47:34.641Z,6.57
2022-07-30T01:50:03.271Z,5.95
2022-07-30T01:52:31.751Z,4.60
2022-07-30T01:55:00.478Z,5.68
2022-07-30T01:57:28.795Z,5.45
2022-07-30T02:00:00.509Z,5.05
2022-07-30T02:02:29.152Z,6.03
2022-07-30T02:04:57.203Z,4.63
2022-07-30T02:07:30.429Z,3.90
2022-07-30T02:10:00.792Z,4.57
2022-07-30T02:12:32.226Z,4.05
2022-07-30T02:15:12.347Z,3.65
2022-07-30T02:17:44.952Z,4.43
2022-07-30T02:20:13.896Z,4.22
2022-07-30T02:22:46.477Z,3.75
2022-07-30T02:25:21.968Z,3.30
2022-07-30T02:27:54.192Z,3.50
2022-07-30T02:30:28.008Z,3.47
2022-07-30T02:32:57.556Z,6.22
2022-07-30T02:35:26.683Z,3.33
2022-07-30T02:37:54.936Z,3.42
2022-07-30T02:40:23.860Z,4.65
2022-07-30T02:42:53.711Z,3.78
2022-07-30T02:45:27.221Z,3.78
2022-07-30T02:47:57.617Z,4.47
2022-07-30T02:50:25.972Z,4.80
2022-07-30T02:52:55.456Z,8.07
2022-07-30T02:55:23.795Z,3.10
2022-07-30T02:57:52.504Z,3.20
2022-07-30T03:00:21.837Z,3.97
2022-07-30T03:02:56.700Z,3.20
2022-07-30T03:05:25.311Z,3.63
2022-07-30T03:07:55.324Z,3.60
2022-07-30T03:10:23.549Z,4.25
2022-07-30T03:12:51.619Z,4.53
2022-07-30T03:15:19.804Z,3.30
2022-07-30T03:17:53.404Z,3.90
2022-07-30T03:20:25.904Z,3.20
2022-07-30T03:22:54.719Z,3.13
2022-07-30T03:25:24.839Z,3.47
2022-07-30T03:27:53.261Z,3.63
2022-07-30T03:30:22.043Z,5.13
2022-07-30T03:32:50.258Z,4.47
2022-07-30T03:35:20.427Z,5.63
2022-07-30T03:37:50.404Z,5.40
2022-07-30T03:40:18.661Z,6.07
2022-07-30T03:42:47.789Z,2.72
2022-07-30T03:45:19.095Z,3.10
2022-07-30T03:47:47.260Z,2.95
2022-07-30T03:50:15.381Z,4.88
2022-07-30T03:52:44.108Z,4.85
2022-07-30T03:55:18.264Z,3.10
2022-07-30T03:57:49.392Z,3.22
2022-07-30T04:00:19.432Z,3.83
2022-07-30T04:02:52.517Z,3.45
2022-07-30T04:05:41.289Z,4.13
2022-07-30T04:08:10.191Z,5.72
2022-07-30T04:10:41.129Z,7.38
2022-07-30T04:13:28.113Z,5.70
2022-07-30T04:16:06.037Z,6.10
2022-07-30T04:18:49.960Z,7.43
2022-07-30T04:21:19.837Z,4.93
2022-07-30T04:24:04.319Z,5.65
2022-07-30T04:26:37.055Z,4.28
2022-07-30T04:29:07.313Z,3.83
2022-07-30T04:31:40.702Z,4.25
2022-07-30T04:34:28.093Z,3.53
2022-07-30T04:36:56.403Z,5.00
2022-07-30T04:39:24.680Z,8.68
2022-07-30T04:41:54.256Z,5.35
2022-07-30T04:44:34.380Z,7.10
2022-07-30T04:47:25.363Z,6.03
2022-07-30T04:50:10.591Z,7.53
2022-07-30T04:52:38.992Z,4.68
2022-07-30T04:55:09.525Z,7.05
2022-07-30T04:57:39.949Z,4.47
2022-07-30T05:00:09.155Z,6.95
2022-07-30T05:02:39.708Z,6.97
2022-07-30T05:05:09.129Z,5.80
2022-07-30T05:07:37.394Z,4.05
2022-07-30T05:10:07.885Z,6.22
2022-07-30T05:12:37.620Z,5.82
2022-07-30T05:15:08.302Z,5.22
2022-07-30T05:17:37.001Z,4.75
2022-07-30T05:20:08.383Z,4.68
2022-07-30T05:22:59.228Z,6.07
2022-07-30T05:25:27.540Z,6.00
2022-07-30T05:28:02.162Z,6.05
2022-07-30T05:30:31.685Z,5.53
2022-07-30T05:33:03.665Z,6.00
2022-07-30T05:35:43.992Z,6.97
2022-07-30T05:38:12.131Z,5.95
2022-07-30T05:40:57.211Z,5.22
2022-07-30T05:43:44.321Z,5.30
2022-07-30T05:46:13.950Z,6.55
2022-07-30T05:48:42.122Z,5.72
2022-07-30T05:51:10.272Z,6.38
2022-07-30T05:53:38.384Z,5.85
2022-07-30T05:56:25.236Z,7.50
2022-07-30T05:59:09.276Z,17.02
2022-07-30T06:01:57.347Z,22.63
2022-07-30T06:04:32.914Z,26.60
2022-07-30T06:07:05.155Z,15.73
2022-07-30T06:09:36.684Z,13.30
2022-07-30T06:12:06.744Z,12.20
2022-07-30T06:14:34.888Z,11.27
2022-07-30T06:17:04.940Z,9.20
2022-07-30T06:20:09.107Z,10.05
2022-07-30T06:22:49.632Z,8.93
2022-07-30T06:25:25.238Z,9.65
2022-07-30T06:27:53.422Z,10.55
2022-07-30T06:30:31.162Z,10.85
2022-07-30T06:33:01.365Z,8.85
2022-07-30T06:35:30.755Z,9.25
2022-07-30T06:38:07.059Z,8.30
2022-07-30T06:40:41.656Z,8.00
2022-07-30T06:43:20.409Z,6.75
2022-07-30T06:45:57.881Z,10.02
2022-07-30T06:48:32.886Z,10.32
2022-07-30T06:51:03.439Z,6.97
2022-07-30T06:53:31.768Z,8.25
2022-07-30T06:56:22.404Z,6.10
2022-07-30T06:59:01.221Z,7.25
2022-07-30T07:01:44.737Z,5.00
2022-07-30T07:04:15.123Z,7.35
2022-07-30T07:06:43.280Z,5.25
2022-07-30T07:09:16.431Z,11.80
2022-07-30T07:11:56.148Z,20.10
2022-07-30T07:14:24.395Z,16.55
2022-07-30T07:16:52.783Z,11.70
2022-07-30T07:19:59.434Z,12.20
2022-07-30T07:22:29.091Z,12.88
2022-07-30T07:24:57.242Z,10.32
2022-07-30T07:27:29.313Z,10.50
2022-07-30T07:30:05.339Z,10.55
2022-07-30T07:32:36.967Z,10.38
2022-07-30T07:35:09.621Z,9.75
2022-07-30T07:37:41.958Z,11.00
2022-07-30T07:40:15.465Z,11.52
2022-07-30T07:42:44.381Z,9.35
2022-07-30T07:45:12.946Z,8.98
2022-07-30T07:48:03.988Z,8.80
2022-07-30T07:50:58.269Z,8.93
2022-07-30T07:53:29.482Z,8.68
2022-07-30T07:55:57.634Z,7.32
2022-07-30T07:58:26.907Z,5.40
2022-07-30T08:00:59.095Z,14.57
2022-07-30T08:03:47.205Z,17.08
2022-07-30T08:06:39.992Z,14.93
2022-07-30T08:09:43.768Z,18.67
2022-07-30T08:12:45.687Z,17.38
2022-07-30T08:15:21.989Z,19.20
2022-07-30T08:18:12.688Z,18.92
2022-07-30T08:20:50.461Z,20.98
2022-07-30T08:23:24.506Z,19.08
2022-07-30T08:25:52.707Z,21.77
2022-07-30T08:28:36.156Z,19.88
2022-07-30T08:31:06.440Z,23.02
2022-07-30T08:33:34.516Z,23.33
2022-07-30T08:36:09.626Z,22.73
2022-07-30T08:38:40.229Z,22.45
2022-07-30T08:41:09.324Z,23.23
2022-07-30T08:43:37.694Z,22.45
2022-07-30T08:46:10.337Z,22.63
2022-07-30T08:49:06.401Z,21.77
2022-07-30T08:51:37.885Z,21.80
2022-07-30T08:54:19.482Z,20.08
2022-07-30T08:56:49.512Z,16.27
2022-07-30T08:59:18.221Z,12.43
2022-07-30T09:01:46.311Z,11.13
2022-07-30T09:04:15.397Z,12.73
2022-07-30T09:06:43.508Z,11.68
2022-07-30T09:09:11.786Z,13.75
2022-07-30T09:11:43.555Z,13.15
2022-07-30T09:14:12.088Z,13.27
2022-07-30T09:16:40.808Z,13.65
2022-07-30T09:19:14.704Z,13.50
2022-07-30T09:21:42.956Z,13.32
2022-07-30T09:24:23.916Z,13.25
2022-07-30T09:27:12.280Z,13.13
2022-07-30T09:29:50.028Z,14.00
2022-07-30T09:32:48.807Z,12.93
2022-07-30T09:35:35.631Z,13.82
2022-07-30T09:38:12.983Z,13.52
2022-07-30T09:40:57.613Z,13.45
2022-07-30T09:43:51.616Z,13.20
2022-07-30T09:46:45.042Z,13.70
2022-07-30T09:49:16.797Z,13.55
2022-07-30T09:51:56.192Z,13.80
2022-07-30T09:54:51.081Z,13.38
2022-07-30T09:57:26.063Z,13.73
2022-07-30T10:00:19.832Z,13.30
2022-07-30T10:03:21.993Z,12.57
2022-07-30T10:06:29.839Z,13.50
2022-07-30T10:08:58.894Z,13.35
2022-07-30T10:11:31.062Z,13.02
2022-07-30T10:14:00.795Z,12.25
2022-07-30T10:16:31.445Z,12.27
2022-07-30T10:19:00.248Z,12.82
2022-07-30T10:21:40.708Z,13.20
2022-07-30T10:24:32.748Z,12.25
2022-07-30T10:27:19.800Z,12.25
2022-07-30T10:30:07.683Z,12.02
2022-07-30T10:32:43.312Z,12.10
2022-07-30T10:35:11.602Z,13.23
2022-07-30T10:37:59.699Z,12.10
2022-07-30T10:40:30.912Z,12.65
2022-07-30T10:43:31.851Z,12.95
2022-07-30T10:46:04.399Z,11.88
2022-07-30T10:48:34.932Z,11.30
2022-07-30T10:51:03.072Z,11.93
2022-07-30T10:53:37.246Z,11.93
2022-07-30T10:56:15.402Z,12.00
2022-07-30T10:59:03.248Z,11.90
2022-07-30T11:02:08.906Z,12.18
2022-07-30T11:04:42.459Z,11.73
2022-07-30T11:07:32.787Z,12.13
2022-07-30T11:10:08.655Z,12.05
2022-07-30T11:12:54.530Z,11.50
2022-07-30T11:15:22.840Z,10.82
2022-07-30T11:18:04.522Z,10.90
2022-07-30T11:20:34.544Z,11.23
2022-07-30T11:23:39.982Z,11.25
2022-07-30T11:26:14.381Z,10.93
2022-07-30T11:28:44.537Z,10.90
2022-07-30T11:31:30.730Z,11.10
2022-07-30T11:34:27.753Z,10.43
2022-07-30T11:37:19.153Z,10.48
2022-07-30T11:40:10.622Z,10.60
2022-07-30T11:42:39.674Z,10.70
2022-07-30T11:45:23.324Z,10.55
2022-07-30T11:47:52.176Z,10.43
2022-07-30T11:50:20.524Z,10.73
2022-07-30T11:52:53.675Z,10.10
2022-07-30T11:55:25.737Z,10.48
2022-07-30T11:57:54.116Z,10.40
2022-07-30T12:00:22.264Z,9.93
2022-07-30T12:05:26.984Z,9.63
2022-07-30T12:08:00.524Z,10.38
2022-07-30T12:10:28.764Z,9.73
2022-07-30T12:13:08.425Z,9.40
2022-07-30T12:15:37.423Z,9.90
2022-07-30T12:18:25.432Z,9.88
2022-07-30T12:20:59.244Z,9.80
2022-07-30T12:23:29.302Z,9.93
2022-07-30T12:25:58.143Z,9.57
2022-07-30T12:28:27.479Z,9.70
2022-07-30T12:30:55.913Z,9.48
2022-07-30T12:33:24.083Z,9.98
2022-07-30T12:35:55.149Z,9.55
2022-07-30T12:38:24.020Z,9.55
2022-07-30T12:40:54.836Z,10.27
2022-07-30T12:43:45.025Z,9.93
2022-07-30T12:46:15.215Z,8.98
2022-07-30T12:48:56.528Z,9.73
2022-07-30T12:51:26.918Z,9.30
2022-07-30T12:53:55.543Z,8.88
2022-07-30T12:56:25.836Z,8.82
2022-07-30T12:58:54.338Z,9.27
2022-07-30T13:01:40.719Z,10.25
2022-07-30T13:04:09.100Z,9.57
2022-07-30T13:06:38.128Z,8.82
2022-07-30T13:09:06.387Z,8.90
2022-07-30T13:11:42.280Z,8.65
2022-07-30T13:14:17.143Z,10.90
2022-07-30T13:16:45.645Z,9.95
2022-07-30T13:19:13.975Z,8.98
2022-07-30T13:21:49.737Z,9.85
2022-07-30T13:24:18.636Z,10.27
2022-07-30T13:26:50.794Z,7.03
2022-07-30T13:29:19.062Z,9.13
2022-07-30T13:31:47.308Z,10.63
2022-07-30T13:34:15.371Z,10.27
2022-07-30T13:36:43.496Z,10.98
2022-07-30T13:39:12.121Z,9.35
2022-07-30T13:41:41.761Z,9.85
2022-07-30T13:44:11.207Z,7.45
2022-07-30T13:46:41.327Z,8.02
2022-07-30T13:49:10.750Z,7.97
2022-07-30T13:51:39.110Z,8.35
2022-07-30T13:54:07.577Z,9.20
2022-07-30T13:56:40.633Z,8.27
2022-07-30T13:59:10.522Z,8.30
2022-07-30T14:01:38.692Z,8.90
2022-07-30T14:04:07.008Z,7.28
2022-07-30T14:06:35.736Z,8.00
2022-07-30T14:09:03.902Z,9.10
2022-07-30T14:11:32.440Z,9.50
2022-07-30T14:14:00.534Z,7.47
2022-07-30T14:16:44.647Z,7.00
2022-07-30T14:19:24.141Z,7.40
2022-07-30T14:21:53.878Z,7.68
2022-07-30T14:24:22.204Z,7.25
2022-07-30T14:26:55.801Z,7.00
2022-07-30T14:29:26.155Z,7.10
2022-07-30T14:31:55.735Z,7.45
2022-07-30T14:34:23.867Z,7.32
2022-07-30T14:36:52.258Z,7.47
2022-07-30T14:39:20.979Z,7.75
2022-07-30T14:41:52.307Z,6.82
2022-07-30T14:44:23.909Z,6.32
2022-07-30T14:46:52.975Z,7.28
2022-07-30T14:49:24.143Z,9.95
2022-07-30T14:51:52.717Z,10.63
2022-07-30T14:54:20.853Z,6.55
2022-07-30T14:56:49.049Z,7.32
2022-07-30T14:59:17.125Z,6.75
2022-07-30T15:01:47.145Z,6.53
2022-07-30T15:04:16.334Z,7.53
2022-07-30T15:06:45.981Z,6.80
2022-07-30T15:09:14.456Z,6.72
2022-07-30T15:12:07.647Z,5.95
2022-07-30T15:14:31.666Z,7.13
2022-07-30T15:17:04.226Z,7.85
2022-07-30T15:19:33.701Z,6.55
2022-07-30T15:22:04.813Z,6.40
2022-07-30T15:24:33.779Z,6.35
2022-07-30T15:27:02.103Z,5.93
2022-07-30T15:29:32.159Z,6.10
2022-07-30T15:32:01.711Z,5.85
2022-07-30T15:34:34.394Z,6.32
2022-07-30T15:37:05.471Z,6.40
2022-07-30T15:39:34.511Z,5.47
2022-07-30T15:42:03.395Z,5.70
2022-07-30T15:44:32.415Z,6.30
2022-07-30T15:47:01.117Z,6.47
2022-07-30T15:49:29.652Z,6.15
2022-07-30T15:52:00.241Z,7.75
2022-07-30T15:54:30.161Z,6.40
2022-07-30T15:57:01.097Z,7.00
2022-07-30T15:59:30.599Z,8.20
2022-07-30T16:01:59.486Z,7.07
2022-07-30T16:04:31.262Z,7.18
2022-07-30T16:07:01.561Z,5.45
2022-07-30T16:09:31.401Z,5.75
2022-07-30T16:12:00.990Z,6.53
2022-07-30T16:14:29.590Z,5.25
2022-07-30T16:16:57.811Z,6.30
2022-07-30T16:19:26.334Z,6.20
2022-07-30T16:21:54.661Z,4.85
2022-07-30T16:24:23.103Z,4.78
2022-07-30T16:26:52.808Z,4.28
2022-07-30T16:29:21.703Z,4.63
2022-07-30T16:31:50.532Z,4.50
2022-07-30T16:34:26.305Z,3.60
2022-07-30T16:36:55.257Z,8.07
2022-07-30T16:39:23.734Z,6.20
2022-07-30T16:41:53.481Z,6.65
2022-07-30T16:44:21.697Z,6.30
2022-07-30T16:46:50.214Z,5.50
2022-07-30T16:49:18.992Z,6.68
2022-07-30T16:51:47.480Z,5.50
2022-07-30T16:54:15.903Z,5.47
2022-07-30T16:56:44.369Z,4.63
2022-07-30T16:59:14.608Z,5.30
2022-07-30T17:01:42.928Z,5.30
2022-07-30T17:04:11.392Z,5.95
2022-07-30T17:06:40.256Z,4.50
2022-07-30T17:09:08.551Z,5.18
2022-07-30T17:11:46.412Z,4.15
2022-07-30T17:14:17.941Z,4.55
2022-07-30T17:16:46.307Z,4.55
2022-07-30T17:19:15.000Z,4.38
2022-07-30T17:21:43.147Z,5.82
2022-07-30T17:24:13.616Z,5.63
2022-07-30T17:26:43.315Z,6.28
2022-07-30T17:29:14.138Z,6.47
2022-07-30T17:31:44.785Z,7.10
2022-07-30T17:34:14.089Z,8.85
2022-07-30T17:36:47.031Z,8.45
2022-07-30T17:40:23.885Z,10.93
2022-07-30T17:42:10.165Z,9.15
2022-07-30T17:44:39.451Z,8.57
2022-07-30T17:47:14.515Z,7.68
2022-07-30T17:49:44.845Z,8.73
2022-07-30T17:52:13.213Z,7.13
2022-07-30T17:54:41.552Z,7.40
2022-07-30T17:57:09.762Z,7.65
2022-07-30T17:59:37.969Z,8.18
2022-07-30T18:02:06.767Z,6.50
2022-07-30T18:04:36.968Z,7.03
2022-07-30T18:07:05.689Z,7.80
2022-07-30T18:09:36.103Z,7.45
2022-07-30T18:12:08.972Z,5.82
2022-07-30T18:14:37.538Z,5.70
2022-07-30T18:17:08.225Z,5.72
2022-07-30T18:19:41.635Z,6.60
2022-07-30T18:22:10.800Z,9.88
2022-07-30T18:24:43.922Z,8.77
2022-07-30T18:27:14.662Z,13.13
2022-07-30T18:29:42.998Z,12.30
2022-07-30T18:32:11.384Z,11.43
2022-07-30T18:34:41.188Z,10.93
2022-07-30T18:37:10.035Z,9.25
2022-07-30T18:39:38.127Z,9.10
2022-07-30T18:42:07.558Z,11.10
2022-07-30T18:44:35.749Z,6.82
2022-07-30T18:47:04.054Z,8.65
2022-07-30T18:49:37.581Z,7.07
2022-07-30T18:52:08.269Z,8.10
2022-07-30T18:54:37.620Z,4.43
2022-07-30T18:57:07.474Z,5.13
2022-07-30T18:59:38.531Z,5.03
2022-07-30T19:02:08.607Z,3.20
2022-07-30T19:04:38.059Z,3.90
2022-07-30T19:07:08.514Z,6.30
2022-07-30T19:09:36.838Z,3.40
2022-07-30T19:12:06.196Z,2.50
2022-07-30T19:14:35.076Z,5.32
2022-07-30T19:17:03.462Z,5.47
2022-07-30T19:19:43.323Z,4.22
2022-07-30T19:22:12.873Z,4.85
2022-07-30T19:24:40.985Z,3.55
2022-07-30T19:27:13.977Z,2.95
2022-07-30T19:29:43.500Z,4.07
2022-07-30T19:32:11.660Z,2.92
2022-07-30T19:34:40.637Z,7.80
2022-07-30T19:37:08.764Z,6.97
2022-07-30T19:39:38.231Z,6.63
2022-07-30T19:42:27.927Z,7.03
2022-07-30T19:44:56.088Z,8.15
2022-07-30T19:47:26.182Z,6.80
2022-07-30T19:49:54.288Z,7.43
2022-07-30T19:52:25.588Z,7.47
2022-07-30T19:54:56.043Z,8.10
2022-07-30T19:57:24.132Z,7.03
2022-07-30T20:00:12.987Z,7.97
2022-07-30T20:02:41.124Z,6.82
2022-07-30T20:05:11.743Z,7.28
2022-07-30T20:07:42.491Z,4.20
2022-07-30T20:10:14.052Z,3.33
2022-07-30T20:12:49.121Z,5.53
2022-07-30T20:15:17.999Z,4.45
2022-07-30T20:17:46.616Z,5.07
2022-07-30T20:20:14.806Z,4.78
2022-07-30T20:22:42.976Z,4.05
2022-07-30T20:25:11.163Z,3.97
2022-07-30T20:27:42.901Z,3.38
2022-07-30T20:30:12.703Z,4.28
2022-07-30T20:32:46.423Z,5.88
2022-07-30T20:35:15.047Z,3.85
2022-07-30T20:37:55.672Z,4.47
2022-07-30T20:40:26.537Z,4.20
2022-07-30T20:42:56.572Z,3.50
2022-07-30T20:45:25.327Z,5.07
2022-07-30T20:48:08.493Z,3.88
2022-07-30T20:50:46.589Z,3.50
2022-07-30T20:53:17.552Z,3.97
2022-07-30T20:55:45.685Z,3.72
2022-07-30T20:58:17.377Z,3.88
2022-07-30T21:00:49.541Z,5.40
2022-07-30T21:03:21.217Z,3.47
2022-07-30T21:05:52.342Z,3.90
2022-07-30T21:08:21.367Z,3.35
2022-07-30T21:10:55.245Z,3.80
2022-07-30T21:13:26.098Z,4.75
2022-07-30T21:16:02.760Z,3.55
2022-07-30T21:18:32.747Z,4.18
2022-07-30T21:21:05.496Z,4.35
2022-07-30T21:23:34.197Z,3.22
2022-07-30T21:26:07.023Z,3.65
2022-07-30T21:28:41.426Z,3.55
2022-07-30T21:31:09.496Z,3.67
2022-07-30T21:33:37.720Z,3.67
2022-07-30T21:36:10.275Z,4.95
2022-07-30T21:38:41.877Z,3.75
2022-07-30T21:41:14.416Z,4.40
2022-07-30T21:43:44.945Z,5.13
2022-07-30T21:46:13.186Z,4.47
2022-07-30T21:48:41.265Z,3.67
2022-07-30T21:51:09.887Z,3.80
2022-07-30T21:53:45.979Z,3.72
2022-07-30T21:56:14.787Z,4.25
2022-07-30T21:58:45.816Z,5.05
2022-07-30T22:01:21.802Z,4.50
2022-07-30T22:04:02.073Z,4.22
2022-07-30T22:06:34.943Z,4.55
2022-07-30T22:09:06.305Z,3.80
2022-07-30T22:11:46.638Z,4.95
2022-07-30T22:14:16.097Z,4.78
2022-07-30T22:16:46.506Z,4.60
2022-07-30T22:19:15.402Z,3.70
2022-07-30T22:21:46.517Z,3.70
2022-07-30T22:24:28.815Z,3.65
2022-07-30T22:27:00.026Z,3.72
2022-07-30T22:29:33.811Z,3.50
2022-07-30T22:32:04.667Z,6.38
2022-07-30T22:34:33.151Z,4.53
2022-07-30T22:37:01.996Z,4.82
2022-07-30T22:39:31.591Z,5.47
2022-07-30T22:42:01.594Z,3.45
2022-07-30T22:44:31.296Z,5.55
2022-07-30T22:46:59.417Z,4.43
2022-07-30T22:49:49.854Z,7.93
2022-07-30T22:55:09.290Z,3.30
2022-07-30T22:57:40.184Z,7.90
2022-07-30T23:00:12.755Z,5.05
2022-07-30T23:02:42.036Z,6.32
2022-07-30T23:05:11.069Z,3.70
2022-07-30T23:07:40.451Z,6.00
2022-07-30T23:10:17.390Z,4.40
2022-07-30T23:12:30.686Z,3.92
2022-07-30T23:12:48.841Z,3.90
2022-07-30T23:15:18.653Z,3.78
2022-07-30T23:17:46.764Z,4.50
2022-07-30T23:20:15.988Z,4.35
2022-07-30T23:22:44.125Z,5.65
2022-07-30T23:25:12.264Z,3.60
2022-07-30T23:27:40.420Z,5.45
2022-07-30T23:30:09.568Z,3.50
2022-07-30T23:32:39.916Z,4.65
2022-07-30T23:35:09.000Z,5.90
2022-07-30T23:37:37.898Z,4.25
2022-07-30T23:40:18.568Z,3.17
2022-07-30T23:42:46.988Z,3.80
2022-07-30T23:45:15.131Z,2.55
2022-07-30T23:48:00.616Z,5.20
2022-07-30T23:50:30.560Z,4.63
2022-07-30T23:52:58.674Z,3.97
2022-07-30T23:55:27.196Z,5.75
2022-07-30T23:57:55.601Z,3.15
